createdAt,value
2019-03-12T00:00:53.147Z,0.35
2019-03-12T00:03:19.322Z,0.37
2019-03-12T00:05:45.631Z,0.37
2019-03-12T00:08:11.836Z,0.40
2019-03-12T00:10:38.068Z,0.38
2019-03-12T00:13:04.267Z,0.43
2019-03-12T00:15:31.484Z,0.42
2019-03-12T00:17:58.698Z,0.39
2019-03-12T00:20:24.893Z,0.41
2019-03-12T00:22:51.062Z,0.43
2019-03-12T00:25:17.373Z,0.44
2019-03-12T00:27:43.601Z,0.39
2019-03-12T00:30:10.094Z,0.40
2019-03-12T00:32:36.360Z,0.39
2019-03-12T00:35:04.632Z,0.39
2019-03-12T00:37:30.961Z,0.37
2019-03-12T00:39:57.052Z,0.35
2019-03-12T00:42:23.213Z,0.34
2019-03-12T00:44:49.412Z,0.34
2019-03-12T00:47:15.514Z,0.39
2019-03-12T00:49:41.677Z,0.37
2019-03-12T00:52:07.885Z,0.39
2019-03-12T00:54:34.018Z,0.40
2019-03-12T00:57:01.344Z,0.40
2019-03-12T00:59:27.461Z,0.36
2019-03-12T01:01:53.691Z,0.36
2019-03-12T01:04:19.850Z,0.33
2019-03-12T01:06:46.159Z,0.33
2019-03-12T01:09:12.266Z,0.36
2019-03-12T01:11:38.504Z,0.39
2019-03-12T01:14:04.770Z,0.37
2019-03-12T01:16:30.960Z,0.39
2019-03-12T01:18:57.211Z,0.34
2019-03-12T01:21:23.425Z,0.37
2019-03-12T01:23:49.579Z,0.36
2019-03-12T01:26:15.814Z,0.36
2019-03-12T01:28:41.918Z,0.38
2019-03-12T01:31:08.136Z,0.40
2019-03-12T01:33:34.250Z,0.37
2019-03-12T01:36:00.465Z,0.37
2019-03-12T01:38:26.652Z,0.35
2019-03-12T01:40:52.884Z,0.37
2019-03-12T01:43:19.044Z,0.36
2019-03-12T01:45:45.262Z,0.35
2019-03-12T01:48:12.462Z,0.34
2019-03-12T01:50:38.673Z,0.34
2019-03-12T01:53:04.778Z,0.33
2019-03-12T01:55:31.027Z,0.34
2019-03-12T01:57:57.152Z,0.32
2019-03-12T02:00:23.459Z,0.33
2019-03-12T02:02:49.651Z,0.33
2019-03-12T02:05:16.173Z,0.32
2019-03-12T02:07:42.318Z,0.33
2019-03-12T02:10:10.448Z,0.33
2019-03-12T02:12:36.708Z,0.33
2019-03-12T02:15:12.600Z,0.34
2019-03-12T02:17:38.800Z,0.36
2019-03-12T02:20:08.029Z,0.36
2019-03-12T02:22:34.148Z,0.34
2019-03-12T02:25:00.425Z,0.36
2019-03-12T02:27:26.488Z,0.37
2019-03-12T02:29:52.698Z,0.37
2019-03-12T02:32:18.847Z,0.36
2019-03-12T02:34:45.015Z,0.36
2019-03-12T02:37:11.154Z,0.37
2019-03-12T02:39:37.312Z,0.37
2019-03-12T02:42:03.665Z,0.36
2019-03-12T02:44:29.978Z,0.37
2019-03-12T02:46:56.132Z,0.37
2019-03-12T02:49:22.281Z,0.39
2019-03-12T02:51:48.386Z,0.39
2019-03-12T02:54:14.682Z,0.40
2019-03-12T02:56:41.850Z,0.44
2019-03-12T02:59:09.007Z,0.42
2019-03-12T03:01:35.173Z,0.45
2019-03-12T03:04:01.416Z,0.46
2019-03-12T03:06:35.877Z,0.47
2019-03-12T03:09:02.575Z,0.44
2019-03-12T03:11:30.670Z,0.42
2019-03-12T03:13:56.783Z,0.45
2019-03-12T03:16:24.335Z,0.47
2019-03-12T03:18:50.759Z,0.46
2019-03-12T03:21:16.948Z,0.46
2019-03-12T03:23:43.168Z,0.48
2019-03-12T03:26:09.331Z,0.48
2019-03-12T03:28:35.619Z,0.45
2019-03-12T03:31:03.150Z,0.45
2019-03-12T03:33:29.254Z,0.45
2019-03-12T03:35:55.462Z,0.48
2019-03-12T03:38:22.398Z,0.48
2019-03-12T03:40:48.656Z,0.45
2019-03-12T03:43:14.796Z,0.45
2019-03-12T03:45:41.011Z,0.44
2019-03-12T03:48:07.163Z,0.44
2019-03-12T03:50:33.410Z,0.45
2019-03-12T03:52:59.673Z,0.45
2019-03-12T03:55:25.946Z,0.47
2019-03-12T03:57:52.617Z,0.45
2019-03-12T04:00:21.365Z,0.46
2019-03-12T04:02:47.549Z,0.46
2019-03-12T04:05:13.982Z,0.43
2019-03-12T04:07:40.104Z,0.43
2019-03-12T04:10:11.072Z,0.44
2019-03-12T04:12:37.271Z,0.45
2019-03-12T04:15:08.512Z,0.47
2019-03-12T04:17:35.119Z,0.47
2019-03-12T04:20:01.972Z,0.47
2019-03-12T04:22:28.129Z,0.45
2019-03-12T04:24:54.654Z,0.46
2019-03-12T04:27:20.817Z,0.45
2019-03-12T04:29:47.144Z,0.44
2019-03-12T04:32:13.351Z,0.45
2019-03-12T04:34:39.769Z,0.47
2019-03-12T04:37:06.051Z,0.49
2019-03-12T04:39:32.454Z,0.49
2019-03-12T04:41:58.686Z,0.47
2019-03-12T04:44:24.763Z,0.48
2019-03-12T04:46:51.062Z,0.49
2019-03-12T04:49:17.238Z,0.48
2019-03-12T04:51:43.423Z,0.49
2019-03-12T04:54:09.585Z,0.48
2019-03-12T04:56:35.725Z,0.50
2019-03-12T04:59:02.062Z,0.49
2019-03-12T05:01:28.239Z,0.49
2019-03-12T05:03:54.392Z,0.48
2019-03-12T05:06:20.853Z,0.48
2019-03-12T05:08:47.009Z,0.47
2019-03-12T05:11:13.174Z,0.50
2019-03-12T05:13:40.434Z,0.49
2019-03-12T05:16:06.641Z,0.50
2019-03-12T05:18:32.808Z,0.49
2019-03-12T05:20:58.963Z,0.48
2019-03-12T05:23:25.354Z,0.49
2019-03-12T05:25:51.592Z,0.50
2019-03-12T05:28:17.691Z,0.52
2019-03-12T05:30:43.985Z,0.54
2019-03-12T05:33:10.183Z,0.54
2019-03-12T05:35:36.391Z,0.55
2019-03-12T05:38:02.586Z,0.53
2019-03-12T05:40:28.740Z,0.54
2019-03-12T05:42:54.952Z,0.54
2019-03-12T05:45:21.049Z,0.51
2019-03-12T05:47:47.241Z,0.49
2019-03-12T05:50:20.448Z,0.48
2019-03-12T05:52:48.952Z,0.52
2019-03-12T05:55:15.249Z,0.51
2019-03-12T05:57:41.658Z,0.52
2019-03-12T06:00:16.752Z,0.54
2019-03-12T06:02:42.950Z,0.55
2019-03-12T06:05:09.297Z,0.58
2019-03-12T06:07:35.490Z,0.59
2019-03-12T06:10:03.628Z,0.59
2019-03-12T06:12:29.853Z,0.59
2019-03-12T06:14:55.960Z,0.62
2019-03-12T06:17:22.145Z,0.63
2019-03-12T06:19:48.235Z,0.61
2019-03-12T06:22:14.453Z,0.63
2019-03-12T06:24:40.537Z,0.64
2019-03-12T06:27:06.720Z,0.64
2019-03-12T06:29:32.824Z,0.64
2019-03-12T06:32:06.972Z,0.69
2019-03-12T06:34:35.011Z,0.68
2019-03-12T06:37:12.129Z,0.70
2019-03-12T06:39:45.921Z,0.71
2019-03-12T06:42:14.042Z,0.70
2019-03-12T06:44:58.841Z,0.70
2019-03-12T06:47:29.742Z,0.72
2019-03-12T06:50:00.486Z,0.80
2019-03-12T06:52:43.638Z,0.82
2019-03-12T06:55:11.644Z,0.86
2019-03-12T06:58:18.435Z,0.85
2019-03-12T07:01:04.344Z,0.86
2019-03-12T07:03:48.872Z,0.86
2019-03-12T07:06:20.952Z,0.87
2019-03-12T07:09:04.112Z,0.90
2019-03-12T07:11:42.316Z,0.99
2019-03-12T07:14:13.556Z,1.02
2019-03-12T07:16:44.388Z,1.10
2019-03-12T07:19:12.463Z,1.14
2019-03-12T07:21:40.548Z,1.18
2019-03-12T07:24:08.674Z,1.23
2019-03-12T07:26:49.031Z,1.27
2019-03-12T07:29:32.536Z,1.27
2019-03-12T07:32:15.901Z,1.29
2019-03-12T07:35:00.924Z,1.36
2019-03-12T07:37:28.969Z,1.39
2019-03-12T07:40:05.824Z,1.43
2019-03-12T07:42:51.083Z,1.43
2019-03-12T07:45:19.154Z,1.41
2019-03-12T07:47:56.070Z,1.52
2019-03-12T07:50:24.252Z,1.62
2019-03-12T07:53:10.475Z,1.66
2019-03-12T07:55:50.573Z,1.72
2019-03-12T07:58:35.596Z,1.74
2019-03-12T08:01:03.886Z,1.70
2019-03-12T08:03:48.320Z,1.73
2019-03-12T08:06:28.289Z,1.74
2019-03-12T08:08:59.057Z,1.82
2019-03-12T08:11:27.191Z,1.84
2019-03-12T08:13:55.314Z,1.80
2019-03-12T08:16:23.547Z,1.85
2019-03-12T08:18:52.647Z,1.90
2019-03-12T08:21:32.851Z,1.97
2019-03-12T08:24:07.001Z,2.07
2019-03-12T08:26:35.056Z,2.08
2019-03-12T08:29:05.862Z,2.14
2019-03-12T08:31:51.882Z,2.15
2019-03-12T08:34:31.937Z,2.23
2019-03-12T08:37:06.057Z,2.27
2019-03-12T08:39:36.953Z,2.32
2019-03-12T08:42:05.020Z,2.37
2019-03-12T08:44:33.071Z,2.45
2019-03-12T08:47:14.433Z,2.50
2019-03-12T08:49:45.475Z,2.55
2019-03-12T08:52:13.501Z,2.55
2019-03-12T08:54:58.281Z,2.61
2019-03-12T08:57:27.896Z,2.76
2019-03-12T08:59:56.631Z,2.79
2019-03-12T09:02:34.174Z,2.86
2019-03-12T09:05:08.847Z,2.88
2019-03-12T09:07:40.111Z,2.99
2019-03-12T09:10:26.641Z,2.97
2019-03-12T09:12:55.418Z,2.98
2019-03-12T09:15:40.873Z,2.97
2019-03-12T09:18:24.892Z,3.00
2019-03-12T09:20:56.444Z,3.20
2019-03-12T09:23:37.147Z,3.35
2019-03-12T09:26:20.570Z,3.75
2019-03-12T09:28:52.111Z,4.03
2019-03-12T09:31:29.771Z,4.03
2019-03-12T09:34:02.339Z,3.79
2019-03-12T09:36:31.005Z,3.73
2019-03-12T09:39:02.596Z,3.72
2019-03-12T09:41:48.071Z,3.69
2019-03-12T09:44:33.245Z,3.57
2019-03-12T09:47:04.659Z,3.66
2019-03-12T09:49:39.337Z,3.95
2019-03-12T09:52:22.797Z,4.30
2019-03-12T09:54:51.375Z,4.90
2019-03-12T09:57:21.943Z,4.93
2019-03-12T09:59:50.566Z,4.70
2019-03-12T10:02:25.044Z,4.75
2019-03-12T10:05:02.777Z,4.63
2019-03-12T10:07:48.630Z,4.57
2019-03-12T10:10:22.574Z,4.41
2019-03-12T10:12:50.679Z,4.63
2019-03-12T10:15:36.650Z,4.63
2019-03-12T10:18:05.041Z,4.50
2019-03-12T10:20:33.332Z,4.41
2019-03-12T10:23:04.980Z,4.82
2019-03-12T10:25:36.527Z,4.95
2019-03-12T10:28:17.087Z,5.78
2019-03-12T10:30:47.849Z,6.58
2019-03-12T10:33:16.044Z,6.83
2019-03-12T10:35:49.861Z,6.78
2019-03-12T10:38:55.230Z,7.16
2019-03-12T10:41:32.371Z,7.35
2019-03-12T10:44:00.485Z,7.51
2019-03-12T10:46:31.273Z,8.14
2019-03-12T10:48:57.585Z,8.72
2019-03-12T10:51:23.786Z,8.56
2019-03-12T10:53:49.899Z,8.24
2019-03-12T10:56:16.230Z,8.48
2019-03-12T10:58:42.347Z,8.19
2019-03-12T11:01:08.783Z,8.65
2019-03-12T11:03:34.977Z,9.91
2019-03-12T11:06:01.281Z,9.17
2019-03-12T11:08:27.422Z,8.64
2019-03-12T11:10:53.635Z,7.94
2019-03-12T11:13:19.725Z,8.12
2019-03-12T11:15:46.152Z,7.97
2019-03-12T11:18:12.323Z,7.12
2019-03-12T11:20:38.498Z,6.74
2019-03-12T11:23:04.703Z,6.38
2019-03-12T11:25:30.934Z,7.00
2019-03-12T11:27:59.533Z,6.66
2019-03-12T11:30:25.653Z,6.27
2019-03-12T11:32:51.861Z,5.90
2019-03-12T11:35:17.973Z,6.63
2019-03-12T11:37:44.254Z,6.38
2019-03-12T11:40:25.699Z,8.25
2019-03-12T11:42:53.407Z,9.85
2019-03-12T11:45:22.214Z,11.42
2019-03-12T11:47:48.233Z,10.09
2019-03-12T11:50:17.159Z,11.57
2019-03-12T11:52:52.720Z,10.69
2019-03-12T11:55:13.273Z,9.27
2019-03-12T11:57:39.529Z,8.44
2019-03-12T12:00:09.751Z,10.29
2019-03-12T12:02:36.168Z,10.55
2019-03-12T12:05:02.850Z,11.48
2019-03-12T12:07:30.113Z,13.03
2019-03-12T12:09:56.365Z,14.25
2019-03-12T12:12:22.538Z,14.99
2019-03-12T12:14:48.723Z,15.55
2019-03-12T12:17:14.892Z,16.34
2019-03-12T12:19:41.117Z,15.25
2019-03-12T12:22:07.282Z,15.07
2019-03-12T12:24:33.512Z,14.21
2019-03-12T12:26:59.749Z,12.84
2019-03-12T12:29:25.962Z,12.79
2019-03-12T12:31:52.184Z,13.38
2019-03-12T12:34:18.403Z,14.34
2019-03-12T12:36:45.642Z,15.29
2019-03-12T12:39:11.926Z,16.12
2019-03-12T12:41:38.268Z,15.96
2019-03-12T12:44:04.434Z,16.11
2019-03-12T12:46:30.743Z,17.19
2019-03-12T12:48:56.950Z,17.32
2019-03-12T12:51:23.037Z,15.57
2019-03-12T12:53:49.252Z,16.46
2019-03-12T12:56:15.463Z,14.12
2019-03-12T12:58:42.023Z,14.03
2019-03-12T13:01:08.214Z,14.33
2019-03-12T13:03:34.508Z,14.33
2019-03-12T13:06:00.610Z,13.54
2019-03-12T13:08:26.801Z,12.98
2019-03-12T13:10:53.062Z,13.02
2019-03-12T13:13:19.363Z,12.21
2019-03-12T13:15:45.737Z,11.62
2019-03-12T13:18:11.960Z,11.84
2019-03-12T13:20:38.749Z,11.09
2019-03-12T13:23:05.419Z,11.50
2019-03-12T13:25:32.053Z,12.43
2019-03-12T13:27:58.289Z,12.37
2019-03-12T13:30:25.989Z,12.40
2019-03-12T13:32:52.526Z,11.98
2019-03-12T13:35:19.726Z,13.18
2019-03-12T13:37:49.423Z,13.70
2019-03-12T13:40:17.695Z,14.19
2019-03-12T13:42:44.039Z,15.33
2019-03-12T13:45:18.593Z,14.74
2019-03-12T13:47:45.405Z,13.95
2019-03-12T13:50:12.844Z,13.50
2019-03-12T13:52:39.827Z,13.28
2019-03-12T13:55:11.518Z,13.32
2019-03-12T13:57:38.539Z,12.84
2019-03-12T14:00:11.302Z,12.54
2019-03-12T14:02:38.215Z,12.68
2019-03-12T14:05:07.824Z,12.33
2019-03-12T14:07:34.456Z,11.87
2019-03-12T14:10:00.807Z,11.48
2019-03-12T14:12:27.421Z,11.42
2019-03-12T14:14:53.591Z,11.11
2019-03-12T14:17:19.927Z,10.43
2019-03-12T14:19:46.158Z,10.13
2019-03-12T14:22:12.315Z,10.00
2019-03-12T14:24:38.492Z,9.79
2019-03-12T14:27:04.827Z,9.79
2019-03-12T14:29:30.989Z,9.95
2019-03-12T14:31:57.134Z,10.14
2019-03-12T14:34:23.347Z,10.70
2019-03-12T14:36:49.590Z,10.49
2019-03-12T14:39:16.913Z,10.53
2019-03-12T14:41:43.302Z,10.27
2019-03-12T14:44:09.539Z,10.14
2019-03-12T14:46:36.045Z,10.13
2019-03-12T14:49:02.928Z,10.43
2019-03-12T14:51:33.519Z,10.43
2019-03-12T14:54:02.687Z,10.53
2019-03-12T14:56:30.078Z,10.48
2019-03-12T14:58:56.978Z,10.13
2019-03-12T15:01:23.741Z,9.96
2019-03-12T15:03:50.239Z,9.98
2019-03-12T15:06:16.555Z,9.95
2019-03-12T15:08:42.835Z,9.86
2019-03-12T15:11:09.148Z,9.82
2019-03-12T15:13:36.388Z,9.79
2019-03-12T15:16:02.530Z,9.66
2019-03-12T15:18:28.725Z,9.56
2019-03-12T15:20:54.926Z,9.40
2019-03-12T15:23:21.089Z,9.20
2019-03-12T15:25:47.644Z,9.03
2019-03-12T15:28:14.675Z,8.87
2019-03-12T15:30:41.626Z,8.67
2019-03-12T15:33:07.833Z,8.57
2019-03-12T15:35:34.341Z,8.42
2019-03-12T15:38:00.806Z,8.17
2019-03-12T15:40:27.305Z,7.93
2019-03-12T15:42:54.218Z,7.77
2019-03-12T15:45:20.890Z,7.61
2019-03-12T15:47:47.340Z,7.46
2019-03-12T15:50:18.794Z,7.37
2019-03-12T15:52:44.297Z,7.32
2019-03-12T15:55:11.611Z,7.19
2019-03-12T15:57:38.080Z,6.99
2019-03-12T16:00:16.067Z,6.85
2019-03-12T16:02:42.393Z,6.70
2019-03-12T16:05:08.813Z,6.57
2019-03-12T16:07:35.080Z,6.54
2019-03-12T16:10:01.628Z,6.44
2019-03-12T16:12:27.987Z,6.38
2019-03-12T16:14:54.156Z,6.35
2019-03-12T16:17:20.422Z,6.20
2019-03-12T16:19:46.605Z,6.11
2019-03-12T16:22:12.786Z,6.04
2019-03-12T16:24:39.017Z,5.91
2019-03-12T16:27:05.185Z,5.82
2019-03-12T16:29:31.349Z,5.72
2019-03-12T16:31:57.485Z,5.72
2019-03-12T16:34:23.832Z,5.62
2019-03-12T16:36:50.040Z,5.56
2019-03-12T16:39:16.399Z,5.49
2019-03-12T16:41:42.528Z,5.43
2019-03-12T16:44:08.783Z,5.32
2019-03-12T16:46:36.297Z,5.28
2019-03-12T16:49:02.830Z,5.20
2019-03-12T16:51:29.146Z,5.07
2019-03-12T16:53:55.411Z,5.03
2019-03-12T16:56:21.613Z,4.94
2019-03-12T16:58:47.815Z,4.88
2019-03-12T17:01:15.148Z,4.82
2019-03-12T17:03:42.275Z,4.77
2019-03-12T17:06:08.427Z,4.72
2019-03-12T17:08:34.739Z,4.65
2019-03-12T17:11:02.714Z,4.65
2019-03-12T17:13:29.111Z,4.57
2019-03-12T17:15:55.330Z,4.52
2019-03-12T17:18:21.669Z,4.51
2019-03-12T17:20:47.789Z,4.50
2019-03-12T17:23:14.080Z,4.48
2019-03-12T17:25:41.322Z,4.47
2019-03-12T17:28:08.623Z,4.42
2019-03-12T17:30:34.883Z,4.40
2019-03-12T17:33:01.162Z,4.38
2019-03-12T17:35:35.164Z,4.35
2019-03-12T17:38:01.912Z,4.34
2019-03-12T17:40:28.409Z,4.31
2019-03-12T17:42:54.720Z,4.27
2019-03-12T17:45:21.094Z,4.29
2019-03-12T17:47:47.264Z,4.26
2019-03-12T17:50:13.668Z,4.20
2019-03-12T17:52:39.876Z,4.13
2019-03-12T17:55:09.401Z,4.13
2019-03-12T17:57:35.537Z,4.15
2019-03-12T18:00:04.533Z,4.13
2019-03-12T18:02:41.989Z,4.15
2019-03-12T18:04:59.327Z,4.16
2019-03-12T18:07:25.542Z,4.16
2019-03-12T18:09:51.665Z,4.17
2019-03-12T18:12:17.986Z,4.19
2019-03-12T18:14:44.231Z,4.19
2019-03-12T18:17:10.377Z,4.23
2019-03-12T18:19:37.146Z,4.23
2019-03-12T18:22:03.292Z,4.23
2019-03-12T18:24:31.114Z,4.22
2019-03-12T18:26:57.521Z,4.24
2019-03-12T18:29:23.869Z,4.25
2019-03-12T18:31:50.100Z,4.24
2019-03-12T18:34:16.350Z,4.22
2019-03-12T18:36:42.586Z,4.24
2019-03-12T18:39:09.244Z,4.24
2019-03-12T18:41:35.609Z,4.24
2019-03-12T18:44:01.965Z,4.27
2019-03-12T18:46:28.262Z,4.27
2019-03-12T18:48:54.473Z,4.27
2019-03-12T18:51:20.661Z,4.22
2019-03-12T18:53:46.887Z,4.20
2019-03-12T18:56:13.214Z,4.24
2019-03-12T18:58:39.494Z,4.28
2019-03-12T19:01:05.721Z,4.27
2019-03-12T19:03:31.973Z,4.24
2019-03-12T19:05:58.506Z,4.24
2019-03-12T19:08:25.287Z,4.22
2019-03-12T19:10:52.698Z,4.21
2019-03-12T19:13:19.254Z,4.26
2019-03-12T19:15:45.483Z,4.24
2019-03-12T19:18:12.003Z,4.24
2019-03-12T19:20:38.613Z,4.27
2019-03-12T19:23:05.432Z,4.28
2019-03-12T19:25:38.567Z,4.25
2019-03-12T19:28:05.584Z,4.30
2019-03-12T19:30:32.004Z,4.27
2019-03-12T19:33:11.011Z,4.25
2019-03-12T19:35:37.531Z,4.30
2019-03-12T19:38:04.263Z,4.31
2019-03-12T19:40:34.448Z,4.29
2019-03-12T19:43:01.286Z,4.29
2019-03-12T19:45:28.107Z,4.30
2019-03-12T19:47:54.333Z,4.28
2019-03-12T19:50:20.874Z,4.28
2019-03-12T19:52:49.340Z,4.23
2019-03-12T19:55:25.312Z,4.28
2019-03-12T19:57:51.771Z,4.34
2019-03-12T20:00:20.014Z,4.38
2019-03-12T20:02:46.400Z,4.38
2019-03-12T20:05:13.100Z,4.43
2019-03-12T20:07:39.449Z,4.45
2019-03-12T20:10:18.523Z,4.44
2019-03-12T20:13:05.020Z,4.42
2019-03-12T20:16:10.065Z,4.44
2019-03-12T20:18:56.531Z,4.40
2019-03-12T20:21:42.972Z,4.42
2019-03-12T20:24:33.106Z,4.44
2019-03-12T20:27:36.554Z,4.45
2019-03-12T20:30:28.609Z,4.41
2019-03-12T20:33:15.042Z,4.38
2019-03-12T20:36:18.182Z,4.37
2019-03-12T20:39:13.916Z,4.34
2019-03-12T20:42:05.343Z,4.37
2019-03-12T20:44:52.560Z,4.40
2019-03-12T20:47:56.757Z,4.35
2019-03-12T20:50:41.555Z,4.32
2019-03-12T20:53:35.737Z,4.29
2019-03-12T20:56:29.464Z,4.31
2019-03-12T20:59:28.582Z,4.33
2019-03-12T21:02:01.870Z,4.38
2019-03-12T21:04:32.128Z,4.45
2019-03-12T21:07:08.172Z,4.46
2019-03-12T21:09:57.710Z,4.45
2019-03-12T21:12:40.530Z,4.42
2019-03-12T21:15:39.521Z,4.42
2019-03-12T21:18:25.865Z,4.40
2019-03-12T21:21:29.485Z,4.37
2019-03-12T21:24:02.166Z,4.37
2019-03-12T21:26:53.523Z,4.34
2019-03-12T21:29:27.269Z,4.36
2019-03-12T21:31:53.676Z,4.38
2019-03-12T21:34:19.863Z,4.43
2019-03-12T21:36:46.342Z,4.46
2019-03-12T21:39:12.932Z,4.45
2019-03-12T21:41:39.246Z,4.46
2019-03-12T21:44:05.566Z,4.44
2019-03-12T21:46:31.841Z,4.50
2019-03-12T21:48:58.127Z,4.49
2019-03-12T21:51:24.545Z,4.54
2019-03-12T21:53:50.657Z,4.53
2019-03-12T21:56:17.938Z,4.56
2019-03-12T21:58:44.159Z,4.60
2019-03-12T22:01:10.491Z,4.62
2019-03-12T22:03:36.602Z,4.61
2019-03-12T22:06:02.938Z,4.69
2019-03-12T22:08:29.157Z,4.79
2019-03-12T22:10:55.386Z,4.78
2019-03-12T22:13:21.509Z,4.77
2019-03-12T22:15:47.820Z,4.81
2019-03-12T22:18:13.953Z,4.84
2019-03-12T22:20:40.278Z,4.89
2019-03-12T22:23:23.675Z,4.90
2019-03-12T22:25:51.562Z,4.88
2019-03-12T22:28:17.854Z,4.86
2019-03-12T22:30:44.341Z,4.84
2019-03-12T22:33:12.123Z,4.85
2019-03-12T22:35:38.241Z,4.86
2019-03-12T22:38:04.485Z,4.82
2019-03-12T22:40:30.616Z,4.86
2019-03-12T22:42:56.940Z,4.84
2019-03-12T22:45:23.129Z,4.81
2019-03-12T22:47:49.354Z,4.80
2019-03-12T22:50:15.705Z,4.84
2019-03-12T22:52:42.054Z,4.87
2019-03-12T22:55:09.927Z,4.89
2019-03-12T22:57:36.174Z,4.88
2019-03-12T23:00:21.091Z,4.85
2019-03-12T23:03:05.900Z,4.84
2019-03-12T23:05:50.563Z,4.81
2019-03-12T23:08:35.409Z,4.76
2019-03-12T23:11:03.574Z,4.83
2019-03-12T23:13:30.339Z,4.85
2019-03-12T23:15:56.744Z,4.91
2019-03-12T23:18:23.973Z,4.90
2019-03-12T23:20:50.279Z,4.92
2019-03-12T23:23:16.610Z,4.93
2019-03-12T23:25:42.708Z,4.94
2019-03-12T23:28:09.023Z,4.94
2019-03-12T23:30:35.154Z,4.99
2019-03-12T23:33:01.472Z,5.02
2019-03-12T23:35:27.794Z,5.04
2019-03-12T23:37:53.943Z,5.07
2019-03-12T23:40:20.260Z,5.06
2019-03-12T23:42:46.510Z,5.12
2019-03-12T23:45:14.737Z,5.18
2019-03-12T23:47:40.934Z,5.19
2019-03-12T23:50:15.093Z,5.18
2019-03-12T23:52:41.676Z,5.19
2019-03-12T23:55:12.541Z,5.19
2019-03-12T23:57:40.058Z,5.16
